Terminal Aerodrome Forecast
Issued by NWS Atlanta, GA

Home | Current Version | Previous Version | Text Only | Print | Product List | Glossary On
Versions: 1 2 3 4 5 6 7 8 9 10 11 12 13 14 15 16 17 18 19 20 21 22 23 24 25 26 27 28 29 30 31 32 33 34 35 36 37 38 39 40 41 42 43 44
000
FTAK31 PAJN 241140
TAFAHN
TAF
PAHN 241140Z 2412/2512 09006KT P6SM FEW050 FEW200
      TEMPO 2412/2416 VRB05KT
     FM241800 12008KT P6SM FEW050 FEW200
     FM242300 12015KT P6SM SCT050 SCT120
     FM250500 12010KT P6SM BKN050
      AMD LTD TO CLD VIS AND WIND=

USA.gov is the U.S. government's official web portal to all federal, state and local government web resources and services.